sensor_id;sensor_type;location;lat;lon;timestamp;temperature;humidity
59977;DHT22;45837;51.076;3.578;2023-03-14T00:00:13;20.70;55.50
59977;DHT22;45837;51.076;3.578;2023-03-14T00:02:39;20.70;55.30
59977;DHT22;45837;51.076;3.578;2023-03-14T00:05:05;20.70;56.20
59977;DHT22;45837;51.076;3.578;2023-03-14T00:07:33;20.70;55.80
59977;DHT22;45837;51.076;3.578;2023-03-14T00:10:01;20.70;55.30
59977;DHT22;45837;51.076;3.578;2023-03-14T00:12:27;20.70;55.10
59977;DHT22;45837;51.076;3.578;2023-03-14T00:14:53;20.60;55.80
59977;DHT22;45837;51.076;3.578;2023-03-14T00:17:19;20.70;55.70
59977;DHT22;45837;51.076;3.578;2023-03-14T00:19:44;20.60;55.70
59977;DHT22;45837;51.076;3.578;2023-03-14T00:22:10;20.60;55.40
59977;DHT22;45837;51.076;3.578;2023-03-14T00:24:36;20.60;56.30
59977;DHT22;45837;51.076;3.578;2023-03-14T00:27:02;20.60;55.90
59977;DHT22;45837;51.076;3.578;2023-03-14T00:29:27;20.60;55.50
59977;DHT22;45837;51.076;3.578;2023-03-14T00:31:53;20.60;55.70
59977;DHT22;45837;51.076;3.578;2023-03-14T00:34:19;20.60;55.50
59977;DHT22;45837;51.076;3.578;2023-03-14T00:36:44;20.60;55.70
59977;DHT22;45837;51.076;3.578;2023-03-14T00:39:12;20.60;55.30
59977;DHT22;45837;51.076;3.578;2023-03-14T00:41:37;20.60;55.40
59977;DHT22;45837;51.076;3.578;2023-03-14T00:44:03;20.60;55.50
59977;DHT22;45837;51.076;3.578;2023-03-14T00:46:29;20.60;55.40
59977;DHT22;45837;51.076;3.578;2023-03-14T00:48:54;20.60;55.50
59977;DHT22;45837;51.076;3.578;2023-03-14T00:51:22;20.60;55.80
59977;DHT22;45837;51.076;3.578;2023-03-14T00:53:48;20.60;55.80
59977;DHT22;45837;51.076;3.578;2023-03-14T00:56:13;20.50;55.60
59977;DHT22;45837;51.076;3.578;2023-03-14T00:58:39;20.60;55.90
59977;DHT22;45837;51.076;3.578;2023-03-14T01:01:09;20.60;55.50
59977;DHT22;45837;51.076;3.578;2023-03-14T01:03:35;20.50;54.90
59977;DHT22;45837;51.076;3.578;2023-03-14T01:06:11;20.60;55.00
59977;DHT22;45837;51.076;3.578;2023-03-14T01:08:37;20.50;54.90
59977;DHT22;45837;51.076;3.578;2023-03-14T01:11:11;20.50;55.60
59977;DHT22;45837;51.076;3.578;2023-03-14T01:13:37;20.50;54.90
59977;DHT22;45837;51.076;3.578;2023-03-14T01:16:04;20.50;55.20
59977;DHT22;45837;51.076;3.578;2023-03-14T01:18:30;20.50;55.30
59977;DHT22;45837;51.076;3.578;2023-03-14T01:20:56;20.50;55.00
59977;DHT22;45837;51.076;3.578;2023-03-14T01:23:22;20.50;55.30
59977;DHT22;45837;51.076;3.578;2023-03-14T01:25:48;20.50;55.60
59977;DHT22;45837;51.076;3.578;2023-03-14T01:28:14;20.50;55.40
59977;DHT22;45837;51.076;3.578;2023-03-14T01:30:41;20.50;55.20
59977;DHT22;45837;51.076;3.578;2023-03-14T01:33:07;20.50;55.80
59977;DHT22;45837;51.076;3.578;2023-03-14T01:35:33;20.50;55.40
59977;DHT22;45837;51.076;3.578;2023-03-14T01:37:59;20.50;55.40
59977;DHT22;45837;51.076;3.578;2023-03-14T01:40:24;20.40;55.50
59977;DHT22;45837;51.076;3.578;2023-03-14T01:42:54;20.40;55.30
59977;DHT22;45837;51.076;3.578;2023-03-14T01:48:05;20.40;54.80
59977;DHT22;45837;51.076;3.578;2023-03-14T01:50:31;20.40;55.70
59977;DHT22;45837;51.076;3.578;2023-03-14T01:52:57;20.40;55.40
59977;DHT22;45837;51.076;3.578;2023-03-14T01:55:23;20.40;55.40
59977;DHT22;45837;51.076;3.578;2023-03-14T01:57:54;20.40;55.00
59977;DHT22;45837;51.076;3.578;2023-03-14T02:00:21;20.40;54.90
59977;DHT22;45837;51.076;3.578;2023-03-14T02:02:53;20.40;54.80
59977;DHT22;45837;51.076;3.578;2023-03-14T02:05:23;20.40;54.70
59977;DHT22;45837;51.076;3.578;2023-03-14T02:08:02;20.40;54.80
59977;DHT22;45837;51.076;3.578;2023-03-14T02:10:41;20.40;54.90
59977;DHT22;45837;51.076;3.578;2023-03-14T02:13:08;20.40;54.90
59977;DHT22;45837;51.076;3.578;2023-03-14T02:15:55;20.40;54.80
59977;DHT22;45837;51.076;3.578;2023-03-14T02:18:39;20.40;55.10
59977;DHT22;45837;51.076;3.578;2023-03-14T02:21:47;20.40;55.20
59977;DHT22;45837;51.076;3.578;2023-03-14T02:24:33;20.30;54.70
59977;DHT22;45837;51.076;3.578;2023-03-14T02:27:15;20.30;55.10
59977;DHT22;45837;51.076;3.578;2023-03-14T02:32:12;20.30;54.60
59977;DHT22;45837;51.076;3.578;2023-03-14T02:34:39;20.30;54.80
59977;DHT22;45837;51.076;3.578;2023-03-14T02:37:05;20.30;54.80
59977;DHT22;45837;51.076;3.578;2023-03-14T02:39:33;20.30;55.50
59977;DHT22;45837;51.076;3.578;2023-03-14T02:42:00;20.30;54.70
59977;DHT22;45837;51.076;3.578;2023-03-14T02:44:27;20.30;55.30
59977;DHT22;45837;51.076;3.578;2023-03-14T02:46:53;20.30;55.10
59977;DHT22;45837;51.076;3.578;2023-03-14T02:49:19;20.30;55.20
59977;DHT22;45837;51.076;3.578;2023-03-14T02:51:44;20.30;55.30
59977;DHT22;45837;51.076;3.578;2023-03-14T02:54:11;20.30;55.00
59977;DHT22;45837;51.076;3.578;2023-03-14T02:56:36;20.30;55.20
59977;DHT22;45837;51.076;3.578;2023-03-14T02:59:03;20.30;55.00
59977;DHT22;45837;51.076;3.578;2023-03-14T03:01:42;20.20;54.70
59977;DHT22;45837;51.076;3.578;2023-03-14T03:04:08;20.20;55.10
59977;DHT22;45837;51.076;3.578;2023-03-14T03:06:33;20.20;55.50
59977;DHT22;45837;51.076;3.578;2023-03-14T03:08:59;20.20;55.10
59977;DHT22;45837;51.076;3.578;2023-03-14T03:11:25;20.20;54.90
59977;DHT22;45837;51.076;3.578;2023-03-14T03:13:51;20.20;55.70
59977;DHT22;45837;51.076;3.578;2023-03-14T03:16:17;20.20;55.50
59977;DHT22;45837;51.076;3.578;2023-03-14T03:18:43;20.20;55.40
59977;DHT22;45837;51.076;3.578;2023-03-14T03:21:08;20.20;55.60
59977;DHT22;45837;51.076;3.578;2023-03-14T03:23:35;20.40;55.10
59977;DHT22;45837;51.076;3.578;2023-03-14T03:26:00;20.20;55.20
59977;DHT22;45837;51.076;3.578;2023-03-14T03:28:28;20.20;55.20
59977;DHT22;45837;51.076;3.578;2023-03-14T03:30:54;20.20;55.00
59977;DHT22;45837;51.076;3.578;2023-03-14T03:33:21;20.20;55.00
59977;DHT22;45837;51.076;3.578;2023-03-14T03:35:49;20.20;54.80
59977;DHT22;45837;51.076;3.578;2023-03-14T03:38:21;20.10;54.60
59977;DHT22;45837;51.076;3.578;2023-03-14T03:40:49;20.20;55.40
59977;DHT22;45837;51.076;3.578;2023-03-14T03:43:15;20.20;55.40
59977;DHT22;45837;51.076;3.578;2023-03-14T03:45:43;20.20;55.40
59977;DHT22;45837;51.076;3.578;2023-03-14T03:48:09;20.10;55.90
59977;DHT22;45837;51.076;3.578;2023-03-14T03:50:35;20.10;55.10
59977;DHT22;45837;51.076;3.578;2023-03-14T03:53:01;20.10;55.00
59977;DHT22;45837;51.076;3.578;2023-03-14T03:55:27;20.10;55.50
59977;DHT22;45837;51.076;3.578;2023-03-14T03:57:53;20.10;54.90
59977;DHT22;45837;51.076;3.578;2023-03-14T04:00:19;20.10;54.80
59977;DHT22;45837;51.076;3.578;2023-03-14T04:02:46;20.10;55.10
59977;DHT22;45837;51.076;3.578;2023-03-14T04:05:15;20.10;55.10
59977;DHT22;45837;51.076;3.578;2023-03-14T04:07:48;20.10;55.10
59977;DHT22;45837;51.076;3.578;2023-03-14T04:10:18;20.10;55.30
59977;DHT22;45837;51.076;3.578;2023-03-14T04:13:01;20.10;54.70
59977;DHT22;45837;51.076;3.578;2023-03-14T04:15:29;20.10;55.40
59977;DHT22;45837;51.076;3.578;2023-03-14T04:17:58;20.10;55.10
59977;DHT22;45837;51.076;3.578;2023-03-14T04:20:24;20.10;54.40
59977;DHT22;45837;51.076;3.578;2023-03-14T04:22:51;20.10;55.70
59977;DHT22;45837;51.076;3.578;2023-03-14T04:25:16;20.00;55.50
59977;DHT22;45837;51.076;3.578;2023-03-14T04:27:49;20.10;54.90
59977;DHT22;45837;51.076;3.578;2023-03-14T04:30:19;20.00;55.00
59977;DHT22;45837;51.076;3.578;2023-03-14T04:32:50;20.10;55.10
59977;DHT22;45837;51.076;3.578;2023-03-14T04:35:17;20.00;55.30
59977;DHT22;45837;51.076;3.578;2023-03-14T04:37:42;20.00;55.50
59977;DHT22;45837;51.076;3.578;2023-03-14T04:40:10;20.10;55.20
59977;DHT22;45837;51.076;3.578;2023-03-14T04:42:36;20.00;54.50
59977;DHT22;45837;51.076;3.578;2023-03-14T04:45:02;20.00;55.10
59977;DHT22;45837;51.076;3.578;2023-03-14T04:47:30;20.00;55.00
59977;DHT22;45837;51.076;3.578;2023-03-14T04:49:57;20.10;55.10
59977;DHT22;45837;51.076;3.578;2023-03-14T04:52:23;20.00;55.10
59977;DHT22;45837;51.076;3.578;2023-03-14T04:54:50;20.00;55.20
59977;DHT22;45837;51.076;3.578;2023-03-14T04:57:17;20.00;55.10
59977;DHT22;45837;51.076;3.578;2023-03-14T04:59:43;20.00;55.20
59977;DHT22;45837;51.076;3.578;2023-03-14T05:02:32;20.00;55.10
59977;DHT22;45837;51.076;3.578;2023-03-14T05:05:05;20.00;55.20
59977;DHT22;45837;51.076;3.578;2023-03-14T05:08:04;20.00;54.80
59977;DHT22;45837;51.076;3.578;2023-03-14T05:10:36;20.00;54.80
59977;DHT22;45837;51.076;3.578;2023-03-14T05:13:25;19.90;54.70
59977;DHT22;45837;51.076;3.578;2023-03-14T05:15:53;20.00;55.00
59977;DHT22;45837;51.076;3.578;2023-03-14T05:18:39;19.90;54.90
59977;DHT22;45837;51.076;3.578;2023-03-14T05:21:23;19.90;55.00
59977;DHT22;45837;51.076;3.578;2023-03-14T05:24:08;19.90;55.70
59977;DHT22;45837;51.076;3.578;2023-03-14T05:26:57;19.90;55.50
59977;DHT22;45837;51.076;3.578;2023-03-14T05:29:38;20.00;55.30
59977;DHT22;45837;51.076;3.578;2023-03-14T05:32:29;20.00;55.50
59977;DHT22;45837;51.076;3.578;2023-03-14T05:35:11;20.00;55.30
59977;DHT22;45837;51.076;3.578;2023-03-14T05:37:44;20.00;55.80
59977;DHT22;45837;51.076;3.578;2023-03-14T05:40:34;20.10;55.80
59977;DHT22;45837;51.076;3.578;2023-03-14T05:43:12;20.10;56.00
59977;DHT22;45837;51.076;3.578;2023-03-14T05:45:49;20.10;56.60
59977;DHT22;45837;51.076;3.578;2023-03-14T05:48:33;20.20;56.50
59977;DHT22;45837;51.076;3.578;2023-03-14T05:51:20;20.20;56.90
59977;DHT22;45837;51.076;3.578;2023-03-14T05:53:58;20.30;56.80
59977;DHT22;45837;51.076;3.578;2023-03-14T05:56:40;20.40;56.50
59977;DHT22;45837;51.076;3.578;2023-03-14T05:59:25;20.50;56.30
59977;DHT22;45837;51.076;3.578;2023-03-14T06:02:23;20.60;56.40
59977;DHT22;45837;51.076;3.578;2023-03-14T06:04:59;20.70;56.20
59977;DHT22;45837;51.076;3.578;2023-03-14T06:07:30;20.80;56.00
59977;DHT22;45837;51.076;3.578;2023-03-14T06:09:55;21.00;56.50
59977;DHT22;45837;51.076;3.578;2023-03-14T06:12:21;20.90;56.20
59977;DHT22;45837;51.076;3.578;2023-03-14T06:14:47;21.00;55.30
59977;DHT22;45837;51.076;3.578;2023-03-14T06:17:13;21.00;54.00
59977;DHT22;45837;51.076;3.578;2023-03-14T06:19:49;21.00;53.80
59977;DHT22;45837;51.076;3.578;2023-03-14T06:22:15;21.10;53.60
59977;DHT22;45837;51.076;3.578;2023-03-14T06:24:41;21.10;53.70
59977;DHT22;45837;51.076;3.578;2023-03-14T06:27:07;21.10;53.50
59977;DHT22;45837;51.076;3.578;2023-03-14T06:29:32;21.10;53.20
59977;DHT22;45837;51.076;3.578;2023-03-14T06:31:58;21.20;53.00
59977;DHT22;45837;51.076;3.578;2023-03-14T06:34:25;21.20;53.30
59977;DHT22;45837;51.076;3.578;2023-03-14T06:36:51;21.10;53.00
59977;DHT22;45837;51.076;3.578;2023-03-14T06:39:17;21.10;52.70
59977;DHT22;45837;51.076;3.578;2023-03-14T06:41:47;21.10;53.20
59977;DHT22;45837;51.076;3.578;2023-03-14T06:44:13;21.10;53.00
59977;DHT22;45837;51.076;3.578;2023-03-14T06:46:38;21.10;53.10
59977;DHT22;45837;51.076;3.578;2023-03-14T06:49:05;21.10;52.70
59977;DHT22;45837;51.076;3.578;2023-03-14T06:51:32;21.10;53.40
59977;DHT22;45837;51.076;3.578;2023-03-14T06:53:59;21.10;53.20
59977;DHT22;45837;51.076;3.578;2023-03-14T06:56:27;21.10;52.90
59977;DHT22;45837;51.076;3.578;2023-03-14T06:58:55;21.00;52.80
59977;DHT22;45837;51.076;3.578;2023-03-14T07:01:24;21.00;52.80
59977;DHT22;45837;51.076;3.578;2023-03-14T07:03:51;20.90;52.30
59977;DHT22;45837;51.076;3.578;2023-03-14T07:06:17;20.90;53.30
59977;DHT22;45837;51.076;3.578;2023-03-14T07:08:42;20.90;53.10
59977;DHT22;45837;51.076;3.578;2023-03-14T07:11:08;20.90;52.90
59977;DHT22;45837;51.076;3.578;2023-03-14T07:13:37;20.80;52.90
59977;DHT22;45837;51.076;3.578;2023-03-14T07:16:05;20.80;52.20
59977;DHT22;45837;51.076;3.578;2023-03-14T07:18:31;20.80;52.20
59977;DHT22;45837;51.076;3.578;2023-03-14T07:20:57;20.80;52.70
59977;DHT22;45837;51.076;3.578;2023-03-14T07:23:23;20.80;52.70
59977;DHT22;45837;51.076;3.578;2023-03-14T07:25:51;20.80;53.20
59977;DHT22;45837;51.076;3.578;2023-03-14T07:28:20;20.70;52.90
59977;DHT22;45837;51.076;3.578;2023-03-14T07:30:48;20.70;52.60
59977;DHT22;45837;51.076;3.578;2023-03-14T07:33:22;20.70;52.80
59977;DHT22;45837;51.076;3.578;2023-03-14T07:35:48;20.60;52.70
59977;DHT22;45837;51.076;3.578;2023-03-14T07:38:14;20.70;52.30
59977;DHT22;45837;51.076;3.578;2023-03-14T07:40:59;20.60;52.30
59977;DHT22;45837;51.076;3.578;2023-03-14T07:43:27;20.60;52.10
59977;DHT22;45837;51.076;3.578;2023-03-14T07:45:53;20.60;52.20
59977;DHT22;45837;51.076;3.578;2023-03-14T07:48:18;20.60;52.90
59977;DHT22;45837;51.076;3.578;2023-03-14T07:50:47;20.60;52.40
59977;DHT22;45837;51.076;3.578;2023-03-14T07:53:13;20.60;52.10
59977;DHT22;45837;51.076;3.578;2023-03-14T07:55:39;20.50;52.30
59977;DHT22;45837;51.076;3.578;2023-03-14T07:58:05;20.50;52.00
59977;DHT22;45837;51.076;3.578;2023-03-14T08:00:31;20.50;52.20
59977;DHT22;45837;51.076;3.578;2023-03-14T08:02:56;20.50;52.60
59977;DHT22;45837;51.076;3.578;2023-03-14T08:05:22;20.50;52.50
59977;DHT22;45837;51.076;3.578;2023-03-14T08:07:48;20.40;52.10
59977;DHT22;45837;51.076;3.578;2023-03-14T08:10:13;20.50;52.20
59977;DHT22;45837;51.076;3.578;2023-03-14T08:12:46;20.40;51.80
59977;DHT22;45837;51.076;3.578;2023-03-14T08:15:12;20.40;52.40
59977;DHT22;45837;51.076;3.578;2023-03-14T08:17:37;20.40;51.70
59977;DHT22;45837;51.076;3.578;2023-03-14T08:20:03;20.40;52.20
59977;DHT22;45837;51.076;3.578;2023-03-14T08:22:33;20.40;51.50
59977;DHT22;45837;51.076;3.578;2023-03-14T08:24:58;20.40;52.10
59977;DHT22;45837;51.076;3.578;2023-03-14T08:27:24;20.40;52.10
59977;DHT22;45837;51.076;3.578;2023-03-14T08:29:50;20.40;52.30
59977;DHT22;45837;51.076;3.578;2023-03-14T08:32:15;20.40;52.30
59977;DHT22;45837;51.076;3.578;2023-03-14T08:34:41;20.40;52.90
59977;DHT22;45837;51.076;3.578;2023-03-14T08:37:07;20.30;52.10
59977;DHT22;45837;51.076;3.578;2023-03-14T08:39:32;20.30;52.10
59977;DHT22;45837;51.076;3.578;2023-03-14T08:41:58;20.30;52.30
59977;DHT22;45837;51.076;3.578;2023-03-14T08:44:24;20.30;52.20
59977;DHT22;45837;51.076;3.578;2023-03-14T08:46:49;20.30;52.10
59977;DHT22;45837;51.076;3.578;2023-03-14T08:49:15;20.30;52.40
59977;DHT22;45837;51.076;3.578;2023-03-14T08:51:41;20.30;52.40
59977;DHT22;45837;51.076;3.578;2023-03-14T08:54:09;20.30;52.30
59977;DHT22;45837;51.076;3.578;2023-03-14T08:56:35;20.30;51.60
59977;DHT22;45837;51.076;3.578;2023-03-14T08:59:03;20.20;52.50
59977;DHT22;45837;51.076;3.578;2023-03-14T09:01:29;20.30;52.30
59977;DHT22;45837;51.076;3.578;2023-03-14T09:03:54;20.20;52.20
59977;DHT22;45837;51.076;3.578;2023-03-14T09:06:20;20.30;52.90
59977;DHT22;45837;51.076;3.578;2023-03-14T09:08:46;20.30;52.40
59977;DHT22;45837;51.076;3.578;2023-03-14T09:11:11;20.20;52.40
59977;DHT22;45837;51.076;3.578;2023-03-14T09:13:37;20.20;52.40
59977;DHT22;45837;51.076;3.578;2023-03-14T09:16:03;20.20;52.30
59977;DHT22;45837;51.076;3.578;2023-03-14T09:18:29;20.20;51.60
59977;DHT22;45837;51.076;3.578;2023-03-14T09:20:55;20.20;52.30
59977;DHT22;45837;51.076;3.578;2023-03-14T09:23:21;20.20;51.70
59977;DHT22;45837;51.076;3.578;2023-03-14T09:25:46;20.20;52.30
59977;DHT22;45837;51.076;3.578;2023-03-14T09:28:12;20.20;52.10
59977;DHT22;45837;51.076;3.578;2023-03-14T09:30:38;20.20;51.80
59977;DHT22;45837;51.076;3.578;2023-03-14T09:33:04;20.20;51.40
59977;DHT22;45837;51.076;3.578;2023-03-14T09:35:30;20.10;51.70
59977;DHT22;45837;51.076;3.578;2023-03-14T09:37:55;20.10;51.80
59977;DHT22;45837;51.076;3.578;2023-03-14T09:40:21;20.10;51.70
59977;DHT22;45837;51.076;3.578;2023-03-14T09:42:51;20.10;51.50
59977;DHT22;45837;51.076;3.578;2023-03-14T09:45:24;20.10;51.40
59977;DHT22;45837;51.076;3.578;2023-03-14T09:47:50;20.10;51.20
59977;DHT22;45837;51.076;3.578;2023-03-14T09:50:17;20.10;51.30
59977;DHT22;45837;51.076;3.578;2023-03-14T09:52:44;20.10;51.80
59977;DHT22;45837;51.076;3.578;2023-03-14T09:55:15;20.10;51.50
59977;DHT22;45837;51.076;3.578;2023-03-14T09:57:42;20.10;51.30
59977;DHT22;45837;51.076;3.578;2023-03-14T10:02:40;20.00;51.10
59977;DHT22;45837;51.076;3.578;2023-03-14T10:05:14;20.00;51.30
59977;DHT22;45837;51.076;3.578;2023-03-14T10:07:40;20.00;51.90
59977;DHT22;45837;51.076;3.578;2023-03-14T10:10:24;20.00;51.70
59977;DHT22;45837;51.076;3.578;2023-03-14T10:12:57;20.00;51.20
59977;DHT22;45837;51.076;3.578;2023-03-14T10:15:25;20.10;51.30
59977;DHT22;45837;51.076;3.578;2023-03-14T10:17:51;20.00;51.40
59977;DHT22;45837;51.076;3.578;2023-03-14T10:25:44;20.00;51.20
59977;DHT22;45837;51.076;3.578;2023-03-14T10:28:23;20.00;51.30
59977;DHT22;45837;51.076;3.578;2023-03-14T10:30:49;19.90;51.30
59977;DHT22;45837;51.076;3.578;2023-03-14T10:35:43;19.90;51.10
59977;DHT22;45837;51.076;3.578;2023-03-14T10:38:13;19.90;51.40
59977;DHT22;45837;51.076;3.578;2023-03-14T10:40:46;19.90;51.30
59977;DHT22;45837;51.076;3.578;2023-03-14T10:43:15;19.90;51.40
59977;DHT22;45837;51.076;3.578;2023-03-14T10:45:42;19.90;51.40
59977;DHT22;45837;51.076;3.578;2023-03-14T10:53:17;19.90;51.40
59977;DHT22;45837;51.076;3.578;2023-03-14T10:55:43;19.90;51.60
59977;DHT22;45837;51.076;3.578;2023-03-14T10:58:44;19.90;51.70
59977;DHT22;45837;51.076;3.578;2023-03-14T11:01:08;19.90;51.60
59977;DHT22;45837;51.076;3.578;2023-03-14T11:03:35;19.90;51.80
59977;DHT22;45837;51.076;3.578;2023-03-14T11:08:30;19.90;52.30
59977;DHT22;45837;51.076;3.578;2023-03-14T11:11:19;19.80;51.80
59977;DHT22;45837;51.076;3.578;2023-03-14T11:19:18;19.80;51.80
59977;DHT22;45837;51.076;3.578;2023-03-14T11:24:33;19.80;52.50
59977;DHT22;45837;51.076;3.578;2023-03-14T11:34:47;19.80;52.50
59977;DHT22;45837;51.076;3.578;2023-03-14T11:39:52;19.80;52.10
59977;DHT22;45837;51.076;3.578;2023-03-14T11:42:20;19.80;52.20
59977;DHT22;45837;51.076;3.578;2023-03-14T11:44:47;19.80;52.20
59977;DHT22;45837;51.076;3.578;2023-03-14T11:49:47;19.70;52.10
59977;DHT22;45837;51.076;3.578;2023-03-14T11:52:17;19.80;52.20
59977;DHT22;45837;51.076;3.578;2023-03-14T11:57:19;19.80;52.30
59977;DHT22;45837;51.076;3.578;2023-03-14T12:10:22;19.70;52.30
59977;DHT22;45837;51.076;3.578;2023-03-14T12:12:48;19.70;52.90
59977;DHT22;45837;51.076;3.578;2023-03-14T12:15:20;19.70;52.90
59977;DHT22;45837;51.076;3.578;2023-03-14T12:17:47;19.70;52.40
59977;DHT22;45837;51.076;3.578;2023-03-14T12:20:18;19.70;52.60
59977;DHT22;45837;51.076;3.578;2023-03-14T12:22:47;19.70;52.50
59977;DHT22;45837;51.076;3.578;2023-03-14T12:25:15;19.70;52.60
59977;DHT22;45837;51.076;3.578;2023-03-14T12:32:41;19.70;52.50
59977;DHT22;45837;51.076;3.578;2023-03-14T12:35:32;19.70;53.00
59977;DHT22;45837;51.076;3.578;2023-03-14T12:37:52;19.70;52.60
59977;DHT22;45837;51.076;3.578;2023-03-14T12:40:21;19.60;52.60
59977;DHT22;45837;51.076;3.578;2023-03-14T12:42:57;19.70;52.60
59977;DHT22;45837;51.076;3.578;2023-03-14T12:47:51;19.60;53.00
59977;DHT22;45837;51.076;3.578;2023-03-14T12:50:22;19.60;52.60
59977;DHT22;45837;51.076;3.578;2023-03-14T12:53:13;19.60;52.50
59977;DHT22;45837;51.076;3.578;2023-03-14T12:55:50;19.60;52.40
59977;DHT22;45837;51.076;3.578;2023-03-14T12:58:24;19.60;52.40
59977;DHT22;45837;51.076;3.578;2023-03-14T13:01:04;19.60;52.40
59977;DHT22;45837;51.076;3.578;2023-03-14T13:07:00;19.60;53.10
59977;DHT22;45837;51.076;3.578;2023-03-14T13:09:49;19.60;52.60
59977;DHT22;45837;51.076;3.578;2023-03-14T13:14:33;19.60;53.30
59977;DHT22;45837;51.076;3.578;2023-03-14T13:16:59;19.60;53.60
59977;DHT22;45837;51.076;3.578;2023-03-14T13:19:26;19.60;52.70
59977;DHT22;45837;51.076;3.578;2023-03-14T13:21:56;19.60;52.60
59977;DHT22;45837;51.076;3.578;2023-03-14T13:24:23;19.60;52.80
59977;DHT22;45837;51.076;3.578;2023-03-14T13:26:49;19.60;52.70
59977;DHT22;45837;51.076;3.578;2023-03-14T13:29:21;19.60;52.70
59977;DHT22;45837;51.076;3.578;2023-03-14T13:31:48;19.60;52.60
59977;DHT22;45837;51.076;3.578;2023-03-14T13:34:14;19.60;52.60
59977;DHT22;45837;51.076;3.578;2023-03-14T13:36:40;19.60;52.90
59977;DHT22;45837;51.076;3.578;2023-03-14T13:39:27;19.60;53.10
59977;DHT22;45837;51.076;3.578;2023-03-14T13:41:54;19.60;52.70
59977;DHT22;45837;51.076;3.578;2023-03-14T13:44:33;19.60;52.60
59977;DHT22;45837;51.076;3.578;2023-03-14T13:47:00;19.60;52.40
59977;DHT22;45837;51.076;3.578;2023-03-14T13:49:26;19.60;52.40
59977;DHT22;45837;51.076;3.578;2023-03-14T13:51:54;19.50;52.20
59977;DHT22;45837;51.076;3.578;2023-03-14T13:54:21;19.50;52.60
59977;DHT22;45837;51.076;3.578;2023-03-14T13:56:47;19.50;52.30
59977;DHT22;45837;51.076;3.578;2023-03-14T13:59:26;19.50;52.30
59977;DHT22;45837;51.076;3.578;2023-03-14T14:01:52;19.50;52.20
59977;DHT22;45837;51.076;3.578;2023-03-14T14:04:19;19.50;52.40
59977;DHT22;45837;51.076;3.578;2023-03-14T14:06:47;19.50;52.30
59977;DHT22;45837;51.076;3.578;2023-03-14T14:09:19;19.50;52.40
59977;DHT22;45837;51.076;3.578;2023-03-14T14:14:12;19.50;52.90
59977;DHT22;45837;51.076;3.578;2023-03-14T14:16:38;19.50;52.30
59977;DHT22;45837;51.076;3.578;2023-03-14T14:19:04;19.40;52.30
59977;DHT22;45837;51.076;3.578;2023-03-14T14:21:30;19.50;52.60
59977;DHT22;45837;51.076;3.578;2023-03-14T14:23:57;19.40;52.50
59977;DHT22;45837;51.076;3.578;2023-03-14T14:26:23;19.40;52.30
59977;DHT22;45837;51.076;3.578;2023-03-14T14:28:57;19.40;52.50
59977;DHT22;45837;51.076;3.578;2023-03-14T14:31:23;19.40;52.30
59977;DHT22;45837;51.076;3.578;2023-03-14T14:38:41;19.40;52.70
59977;DHT22;45837;51.076;3.578;2023-03-14T14:41:10;19.40;53.10
59977;DHT22;45837;51.076;3.578;2023-03-14T14:43:38;19.40;52.30
59977;DHT22;45837;51.076;3.578;2023-03-14T14:46:05;19.40;52.80
59977;DHT22;45837;51.076;3.578;2023-03-14T14:48:35;19.40;52.30
59977;DHT22;45837;51.076;3.578;2023-03-14T14:51:03;19.40;52.30
59977;DHT22;45837;51.076;3.578;2023-03-14T14:53:39;19.40;52.30
59977;DHT22;45837;51.076;3.578;2023-03-14T14:56:18;19.40;52.10
59977;DHT22;45837;51.076;3.578;2023-03-14T14:58:47;19.40;52.10
59977;DHT22;45837;51.076;3.578;2023-03-14T15:01:14;19.40;52.20
59977;DHT22;45837;51.076;3.578;2023-03-14T15:03:44;19.40;52.30
59977;DHT22;45837;51.076;3.578;2023-03-14T15:06:14;19.40;52.40
59977;DHT22;45837;51.076;3.578;2023-03-14T15:08:39;19.20;52.00
59977;DHT22;45837;51.076;3.578;2023-03-14T15:11:05;19.30;53.30
59977;DHT22;45837;51.076;3.578;2023-03-14T15:13:31;19.40;52.70
59977;DHT22;45837;51.076;3.578;2023-03-14T15:15:56;19.40;53.10
59977;DHT22;45837;51.076;3.578;2023-03-14T15:18:23;19.30;52.70
59977;DHT22;45837;51.076;3.578;2023-03-14T15:20:49;19.30;52.10
59977;DHT22;45837;51.076;3.578;2023-03-14T15:23:16;19.30;52.70
59977;DHT22;45837;51.076;3.578;2023-03-14T15:25:42;19.30;52.10
59977;DHT22;45837;51.076;3.578;2023-03-14T15:28:23;19.30;52.40
59977;DHT22;45837;51.076;3.578;2023-03-14T15:30:50;19.30;52.00
59977;DHT22;45837;51.076;3.578;2023-03-14T15:33:16;19.30;52.40
59977;DHT22;45837;51.076;3.578;2023-03-14T15:35:42;19.30;52.40
59977;DHT22;45837;51.076;3.578;2023-03-14T15:38:09;19.30;53.20
59977;DHT22;45837;51.076;3.578;2023-03-14T15:40:35;19.30;52.10
59977;DHT22;45837;51.076;3.578;2023-03-14T15:43:00;19.30;52.90
59977;DHT22;45837;51.076;3.578;2023-03-14T15:45:26;19.30;52.60
59977;DHT22;45837;51.076;3.578;2023-03-14T15:47:52;19.30;53.20
59977;DHT22;45837;51.076;3.578;2023-03-14T15:50:18;19.30;52.60
59977;DHT22;45837;51.076;3.578;2023-03-14T15:52:44;19.30;52.80
59977;DHT22;45837;51.076;3.578;2023-03-14T15:55:10;19.30;53.00
59977;DHT22;45837;51.076;3.578;2023-03-14T15:57:36;19.30;52.50
59977;DHT22;45837;51.076;3.578;2023-03-14T16:00:02;19.30;52.50
59977;DHT22;45837;51.076;3.578;2023-03-14T16:02:30;19.30;52.30
59977;DHT22;45837;51.076;3.578;2023-03-14T16:04:56;19.30;52.80
59977;DHT22;45837;51.076;3.578;2023-03-14T16:07:22;19.30;53.20
59977;DHT22;45837;51.076;3.578;2023-03-14T16:09:48;19.30;52.10
59977;DHT22;45837;51.076;3.578;2023-03-14T16:12:13;19.30;53.40
59977;DHT22;45837;51.076;3.578;2023-03-14T16:14:39;19.30;53.00
59977;DHT22;45837;51.076;3.578;2023-03-14T16:17:08;19.30;52.60
59977;DHT22;45837;51.076;3.578;2023-03-14T16:19:36;19.30;52.70
59977;DHT22;45837;51.076;3.578;2023-03-14T16:22:02;19.30;52.50
59977;DHT22;45837;51.076;3.578;2023-03-14T16:24:28;19.30;52.40
59977;DHT22;45837;51.076;3.578;2023-03-14T16:26:54;19.30;52.70
59977;DHT22;45837;51.076;3.578;2023-03-14T16:29:19;19.20;52.90
59977;DHT22;45837;51.076;3.578;2023-03-14T16:31:45;19.20;53.10
59977;DHT22;45837;51.076;3.578;2023-03-14T16:34:11;19.20;52.80
59977;DHT22;45837;51.076;3.578;2023-03-14T16:36:37;19.20;52.20
59977;DHT22;45837;51.076;3.578;2023-03-14T16:39:02;19.20;52.50
59977;DHT22;45837;51.076;3.578;2023-03-14T16:41:29;19.20;52.20
59977;DHT22;45837;51.076;3.578;2023-03-14T16:43:58;19.30;52.20
59977;DHT22;45837;51.076;3.578;2023-03-14T16:46:24;19.40;51.80
59977;DHT22;45837;51.076;3.578;2023-03-14T16:48:51;19.30;52.20
59977;DHT22;45837;51.076;3.578;2023-03-14T16:51:17;19.30;53.10
59977;DHT22;45837;51.076;3.578;2023-03-14T16:53:43;19.30;52.90
59977;DHT22;45837;51.076;3.578;2023-03-14T16:56:09;19.40;52.50
59977;DHT22;45837;51.076;3.578;2023-03-14T16:58:35;19.40;52.80